sensor_id;sensor_type;location;lat;lon;timestamp;temperature;humidity
36444;DHT22;24692;45.642;13.806;2023-07-29T00:01:50;22.40;99.90
36444;DHT22;24692;45.642;13.806;2023-07-29T00:04:16;22.40;99.90
36444;DHT22;24692;45.642;13.806;2023-07-29T00:06:42;22.40;99.90
36444;DHT22;24692;45.642;13.806;2023-07-29T00:09:08;22.40;99.90
36444;DHT22;24692;45.642;13.806;2023-07-29T00:11:34;22.40;99.90
36444;DHT22;24692;45.642;13.806;2023-07-29T00:14:01;22.40;99.90
36444;DHT22;24692;45.642;13.806;2023-07-29T00:16:27;22.50;99.90
36444;DHT22;24692;45.642;13.806;2023-07-29T00:18:53;22.50;99.90
36444;DHT22;24692;45.642;13.806;2023-07-29T00:21:18;22.50;99.90
36444;DHT22;24692;45.642;13.806;2023-07-29T00:23:45;22.50;99.90
36444;DHT22;24692;45.642;13.806;2023-07-29T00:26:10;22.40;99.90
36444;DHT22;24692;45.642;13.806;2023-07-29T00:28:36;22.40;99.90
36444;DHT22;24692;45.642;13.806;2023-07-29T00:31:02;22.40;99.90
36444;DHT22;24692;45.642;13.806;2023-07-29T00:33:28;22.30;99.90
36444;DHT22;24692;45.642;13.806;2023-07-29T00:35:54;22.30;99.90
36444;DHT22;24692;45.642;13.806;2023-07-29T00:38:19;22.30;99.90
36444;DHT22;24692;45.642;13.806;2023-07-29T00:40:45;22.30;99.90
36444;DHT22;24692;45.642;13.806;2023-07-29T00:43:11;22.20;99.90
36444;DHT22;24692;45.642;13.806;2023-07-29T00:45:36;22.20;99.90
36444;DHT22;24692;45.642;13.806;2023-07-29T00:48:03;22.10;99.90
36444;DHT22;24692;45.642;13.806;2023-07-29T00:50:31;22.10;99.90
36444;DHT22;24692;45.642;13.806;2023-07-29T00:52:57;22.10;99.90
36444;DHT22;24692;45.642;13.806;2023-07-29T00:55:24;22.10;99.90
36444;DHT22;24692;45.642;13.806;2023-07-29T00:57:50;22.20;99.90
36444;DHT22;24692;45.642;13.806;2023-07-29T01:00:18;22.20;99.90
36444;DHT22;24692;45.642;13.806;2023-07-29T01:02:44;22.10;99.90
36444;DHT22;24692;45.642;13.806;2023-07-29T01:05:13;22.00;99.90
36444;DHT22;24692;45.642;13.806;2023-07-29T01:08:05;22.10;99.90
36444;DHT22;24692;45.642;13.806;2023-07-29T01:13:30;22.10;99.90
36444;DHT22;24692;45.642;13.806;2023-07-29T01:16:10;22.10;99.90
36444;DHT22;24692;45.642;13.806;2023-07-29T01:18:39;22.10;99.90
36444;DHT22;24692;45.642;13.806;2023-07-29T01:21:08;22.10;99.90
36444;DHT22;24692;45.642;13.806;2023-07-29T01:23:34;22.20;99.90
36444;DHT22;24692;45.642;13.806;2023-07-29T01:26:01;22.30;99.90
36444;DHT22;24692;45.642;13.806;2023-07-29T01:28:27;22.20;99.90
36444;DHT22;24692;45.642;13.806;2023-07-29T01:33:57;22.10;99.90
36444;DHT22;24692;45.642;13.806;2023-07-29T01:36:27;22.20;99.90
36444;DHT22;24692;45.642;13.806;2023-07-29T01:38:55;22.20;99.90
36444;DHT22;24692;45.642;13.806;2023-07-29T01:41:21;22.10;99.90
36444;DHT22;24692;45.642;13.806;2023-07-29T01:43:48;22.10;99.90
36444;DHT22;24692;45.642;13.806;2023-07-29T01:46:15;22.20;99.90
36444;DHT22;24692;45.642;13.806;2023-07-29T01:48:41;22.20;99.90
36444;DHT22;24692;45.642;13.806;2023-07-29T01:51:07;22.10;99.90
36444;DHT22;24692;45.642;13.806;2023-07-29T01:53:33;22.00;99.90
36444;DHT22;24692;45.642;13.806;2023-07-29T01:55:59;22.00;99.90
36444;DHT22;24692;45.642;13.806;2023-07-29T01:58:25;22.10;99.90
36444;DHT22;24692;45.642;13.806;2023-07-29T02:00:50;22.10;99.90
36444;DHT22;24692;45.642;13.806;2023-07-29T02:03:16;22.10;99.90
36444;DHT22;24692;45.642;13.806;2023-07-29T02:05:43;22.20;99.90
36444;DHT22;24692;45.642;13.806;2023-07-29T02:08:09;22.20;99.90
36444;DHT22;24692;45.642;13.806;2023-07-29T02:10:35;22.30;99.90
36444;DHT22;24692;45.642;13.806;2023-07-29T02:13:01;22.30;99.90
36444;DHT22;24692;45.642;13.806;2023-07-29T02:15:27;22.20;99.90
36444;DHT22;24692;45.642;13.806;2023-07-29T02:17:53;22.30;99.90
36444;DHT22;24692;45.642;13.806;2023-07-29T02:20:19;22.30;99.90
36444;DHT22;24692;45.642;13.806;2023-07-29T02:22:45;22.40;99.90
36444;DHT22;24692;45.642;13.806;2023-07-29T02:25:11;22.40;99.90
36444;DHT22;24692;45.642;13.806;2023-07-29T02:27:36;22.40;99.90
36444;DHT22;24692;45.642;13.806;2023-07-29T02:30:03;22.30;99.90
36444;DHT22;24692;45.642;13.806;2023-07-29T02:32:28;22.30;99.90
36444;DHT22;24692;45.642;13.806;2023-07-29T02:34:54;22.30;99.90
36444;DHT22;24692;45.642;13.806;2023-07-29T02:37:20;22.30;99.90
36444;DHT22;24692;45.642;13.806;2023-07-29T02:39:46;22.20;99.90
36444;DHT22;24692;45.642;13.806;2023-07-29T02:42:11;22.20;99.90
36444;DHT22;24692;45.642;13.806;2023-07-29T02:44:38;22.20;99.90
36444;DHT22;24692;45.642;13.806;2023-07-29T02:47:04;22.20;99.90
36444;DHT22;24692;45.642;13.806;2023-07-29T02:49:29;22.10;99.90
36444;DHT22;24692;45.642;13.806;2023-07-29T02:51:55;22.10;99.90
36444;DHT22;24692;45.642;13.806;2023-07-29T02:54:21;22.10;99.90
36444;DHT22;24692;45.642;13.806;2023-07-29T02:56:47;22.00;99.90
36444;DHT22;24692;45.642;13.806;2023-07-29T02:59:12;22.00;99.90
36444;DHT22;24692;45.642;13.806;2023-07-29T03:01:38;22.10;99.90
36444;DHT22;24692;45.642;13.806;2023-07-29T03:04:04;22.10;99.90
36444;DHT22;24692;45.642;13.806;2023-07-29T03:06:29;22.10;99.90
36444;DHT22;24692;45.642;13.806;2023-07-29T03:08:55;22.10;99.90
36444;DHT22;24692;45.642;13.806;2023-07-29T03:11:20;22.10;99.90
36444;DHT22;24692;45.642;13.806;2023-07-29T03:13:46;22.10;99.90
36444;DHT22;24692;45.642;13.806;2023-07-29T03:16:14;22.00;99.90
36444;DHT22;24692;45.642;13.806;2023-07-29T03:18:40;22.00;99.90
36444;DHT22;24692;45.642;13.806;2023-07-29T03:21:07;22.00;99.90
36444;DHT22;24692;45.642;13.806;2023-07-29T03:23:34;22.00;99.90
36444;DHT22;24692;45.642;13.806;2023-07-29T03:26:01;22.00;99.90
36444;DHT22;24692;45.642;13.806;2023-07-29T03:28:31;22.00;99.90
36444;DHT22;24692;45.642;13.806;2023-07-29T03:30:57;22.00;99.90
36444;DHT22;24692;45.642;13.806;2023-07-29T03:33:24;21.90;99.90
36444;DHT22;24692;45.642;13.806;2023-07-29T03:35:50;21.90;99.90
36444;DHT22;24692;45.642;13.806;2023-07-29T03:38:16;21.80;99.90
36444;DHT22;24692;45.642;13.806;2023-07-29T03:40:42;21.90;99.90
36444;DHT22;24692;45.642;13.806;2023-07-29T03:43:08;21.90;99.90
36444;DHT22;24692;45.642;13.806;2023-07-29T03:45:34;21.80;99.90
36444;DHT22;24692;45.642;13.806;2023-07-29T03:48:01;21.90;99.90
36444;DHT22;24692;45.642;13.806;2023-07-29T03:50:27;21.80;99.90
36444;DHT22;24692;45.642;13.806;2023-07-29T03:52:53;21.90;99.90
36444;DHT22;24692;45.642;13.806;2023-07-29T03:55:19;21.90;99.90
36444;DHT22;24692;45.642;13.806;2023-07-29T03:57:44;21.90;99.90
36444;DHT22;24692;45.642;13.806;2023-07-29T04:00:10;22.00;99.90
36444;DHT22;24692;45.642;13.806;2023-07-29T04:02:36;22.00;99.90
36444;DHT22;24692;45.642;13.806;2023-07-29T04:05:05;22.00;99.90
36444;DHT22;24692;45.642;13.806;2023-07-29T04:07:34;22.00;99.90
36444;DHT22;24692;45.642;13.806;2023-07-29T04:10:00;22.10;99.90
36444;DHT22;24692;45.642;13.806;2023-07-29T04:12:26;22.20;99.90
36444;DHT22;24692;45.642;13.806;2023-07-29T04:14:52;22.20;99.90
36444;DHT22;24692;45.642;13.806;2023-07-29T04:17:18;22.30;99.90
36444;DHT22;24692;45.642;13.806;2023-07-29T04:19:43;22.40;99.90
36444;DHT22;24692;45.642;13.806;2023-07-29T04:22:09;22.40;99.90
36444;DHT22;24692;45.642;13.806;2023-07-29T04:24:35;22.50;99.90
36444;DHT22;24692;45.642;13.806;2023-07-29T04:27:00;22.50;99.90
36444;DHT22;24692;45.642;13.806;2023-07-29T04:29:26;22.60;99.90
36444;DHT22;24692;45.642;13.806;2023-07-29T04:31:52;22.70;99.90
36444;DHT22;24692;45.642;13.806;2023-07-29T04:34:18;22.70;99.90
36444;DHT22;24692;45.642;13.806;2023-07-29T04:36:48;22.70;99.90
36444;DHT22;24692;45.642;13.806;2023-07-29T04:39:14;22.70;99.90
36444;DHT22;24692;45.642;13.806;2023-07-29T04:41:40;22.70;99.90
36444;DHT22;24692;45.642;13.806;2023-07-29T04:44:05;22.70;99.90
36444;DHT22;24692;45.642;13.806;2023-07-29T04:46:31;22.70;99.90
36444;DHT22;24692;45.642;13.806;2023-07-29T04:48:57;22.60;99.90
36444;DHT22;24692;45.642;13.806;2023-07-29T04:51:23;22.70;99.90
36444;DHT22;24692;45.642;13.806;2023-07-29T04:53:49;22.70;99.90
36444;DHT22;24692;45.642;13.806;2023-07-29T04:56:15;22.80;99.90
36444;DHT22;24692;45.642;13.806;2023-07-29T04:58:41;22.90;99.90
36444;DHT22;24692;45.642;13.806;2023-07-29T05:01:07;23.00;99.90
36444;DHT22;24692;45.642;13.806;2023-07-29T05:03:32;23.10;99.90
36444;DHT22;24692;45.642;13.806;2023-07-29T05:05:58;23.30;99.90
36444;DHT22;24692;45.642;13.806;2023-07-29T05:08:27;23.30;99.90
36444;DHT22;24692;45.642;13.806;2023-07-29T05:10:53;23.30;99.90
36444;DHT22;24692;45.642;13.806;2023-07-29T05:13:20;23.30;99.90
36444;DHT22;24692;45.642;13.806;2023-07-29T05:15:47;23.30;99.90
36444;DHT22;24692;45.642;13.806;2023-07-29T05:18:13;23.30;99.90
36444;DHT22;24692;45.642;13.806;2023-07-29T05:20:39;23.30;99.90
36444;DHT22;24692;45.642;13.806;2023-07-29T05:23:04;23.40;99.90
36444;DHT22;24692;45.642;13.806;2023-07-29T05:25:30;23.40;99.90
36444;DHT22;24692;45.642;13.806;2023-07-29T05:27:57;23.50;99.90
36444;DHT22;24692;45.642;13.806;2023-07-29T05:30:23;23.50;99.90
36444;DHT22;24692;45.642;13.806;2023-07-29T05:32:48;23.50;99.90
36444;DHT22;24692;45.642;13.806;2023-07-29T05:35:14;23.50;99.90
36444;DHT22;24692;45.642;13.806;2023-07-29T05:37:40;23.50;99.90
36444;DHT22;24692;45.642;13.806;2023-07-29T05:40:07;23.50;99.90
36444;DHT22;24692;45.642;13.806;2023-07-29T05:42:33;23.50;99.90
36444;DHT22;24692;45.642;13.806;2023-07-29T05:44:59;23.50;99.90
36444;DHT22;24692;45.642;13.806;2023-07-29T05:47:25;23.50;99.90
36444;DHT22;24692;45.642;13.806;2023-07-29T05:49:51;23.50;99.90
36444;DHT22;24692;45.642;13.806;2023-07-29T05:52:17;23.60;99.90
36444;DHT22;24692;45.642;13.806;2023-07-29T05:54:43;23.60;99.90
36444;DHT22;24692;45.642;13.806;2023-07-29T05:57:12;23.60;99.90
36444;DHT22;24692;45.642;13.806;2023-07-29T05:59:38;23.70;99.90
36444;DHT22;24692;45.642;13.806;2023-07-29T06:02:04;23.70;99.90
36444;DHT22;24692;45.642;13.806;2023-07-29T06:04:30;23.70;99.90
36444;DHT22;24692;45.642;13.806;2023-07-29T06:06:56;23.80;99.90
36444;DHT22;24692;45.642;13.806;2023-07-29T06:09:22;23.90;99.90
36444;DHT22;24692;45.642;13.806;2023-07-29T06:11:48;24.10;99.90
36444;DHT22;24692;45.642;13.806;2023-07-29T06:14:13;24.20;99.90
36444;DHT22;24692;45.642;13.806;2023-07-29T06:16:39;24.40;99.90
36444;DHT22;24692;45.642;13.806;2023-07-29T06:19:05;24.50;99.90
36444;DHT22;24692;45.642;13.806;2023-07-29T06:21:31;24.50;99.90
36444;DHT22;24692;45.642;13.806;2023-07-29T06:23:56;24.40;99.90
36444;DHT22;24692;45.642;13.806;2023-07-29T06:26:22;24.60;99.90
36444;DHT22;24692;45.642;13.806;2023-07-29T06:28:48;24.80;99.90
36444;DHT22;24692;45.642;13.806;2023-07-29T06:31:13;24.90;99.90
36444;DHT22;24692;45.642;13.806;2023-07-29T06:33:40;25.00;99.90
36444;DHT22;24692;45.642;13.806;2023-07-29T06:36:05;25.10;99.90
36444;DHT22;24692;45.642;13.806;2023-07-29T06:38:31;25.20;99.90
36444;DHT22;24692;45.642;13.806;2023-07-29T06:40:57;25.30;99.90
36444;DHT22;24692;45.642;13.806;2023-07-29T06:43:23;25.40;99.90
36444;DHT22;24692;45.642;13.806;2023-07-29T06:45:48;25.40;99.90
36444;DHT22;24692;45.642;13.806;2023-07-29T06:48:14;25.40;99.90
36444;DHT22;24692;45.642;13.806;2023-07-29T06:50:40;25.30;99.90
36444;DHT22;24692;45.642;13.806;2023-07-29T06:53:06;25.40;99.90
36444;DHT22;24692;45.642;13.806;2023-07-29T06:55:31;25.40;99.90
36444;DHT22;24692;45.642;13.806;2023-07-29T06:57:57;25.50;99.90
36444;DHT22;24692;45.642;13.806;2023-07-29T07:00:23;25.60;99.90
36444;DHT22;24692;45.642;13.806;2023-07-29T07:02:48;25.70;99.90
36444;DHT22;24692;45.642;13.806;2023-07-29T07:05:14;25.90;99.90
36444;DHT22;24692;45.642;13.806;2023-07-29T07:07:40;26.20;99.90
36444;DHT22;24692;45.642;13.806;2023-07-29T07:10:06;26.70;99.90
36444;DHT22;24692;45.642;13.806;2023-07-29T07:12:32;26.80;99.90
36444;DHT22;24692;45.642;13.806;2023-07-29T07:14:58;26.70;99.90
36444;DHT22;24692;45.642;13.806;2023-07-29T07:17:23;26.70;99.90
36444;DHT22;24692;45.642;13.806;2023-07-29T07:19:49;26.60;99.90
36444;DHT22;24692;45.642;13.806;2023-07-29T07:22:16;26.70;99.90
36444;DHT22;24692;45.642;13.806;2023-07-29T07:24:42;27.00;99.90
36444;DHT22;24692;45.642;13.806;2023-07-29T07:27:07;27.30;99.90
36444;DHT22;24692;45.642;13.806;2023-07-29T07:29:33;27.50;99.90
36444;DHT22;24692;45.642;13.806;2023-07-29T07:31:59;27.40;99.90
36444;DHT22;24692;45.642;13.806;2023-07-29T07:34:25;27.30;99.90
36444;DHT22;24692;45.642;13.806;2023-07-29T07:36:51;27.40;99.90
36444;DHT22;24692;45.642;13.806;2023-07-29T07:39:16;27.50;99.90
36444;DHT22;24692;45.642;13.806;2023-07-29T07:41:42;27.50;99.90
36444;DHT22;24692;45.642;13.806;2023-07-29T07:44:08;27.40;99.90
36444;DHT22;24692;45.642;13.806;2023-07-29T07:46:34;27.40;99.90
36444;DHT22;24692;45.642;13.806;2023-07-29T07:49:00;27.70;99.90
36444;DHT22;24692;45.642;13.806;2023-07-29T07:51:25;27.80;99.90
36444;DHT22;24692;45.642;13.806;2023-07-29T07:53:51;27.80;99.90
36444;DHT22;24692;45.642;13.806;2023-07-29T07:56:16;28.00;99.90
36444;DHT22;24692;45.642;13.806;2023-07-29T07:58:42;28.10;99.90
36444;DHT22;24692;45.642;13.806;2023-07-29T08:01:08;28.10;99.90
36444;DHT22;24692;45.642;13.806;2023-07-29T08:03:35;28.10;99.90
36444;DHT22;24692;45.642;13.806;2023-07-29T08:06:01;28.00;99.90
36444;DHT22;24692;45.642;13.806;2023-07-29T08:08:27;28.00;99.90
36444;DHT22;24692;45.642;13.806;2023-07-29T08:10:54;28.10;99.90
36444;DHT22;24692;45.642;13.806;2023-07-29T08:13:20;28.10;99.90
36444;DHT22;24692;45.642;13.806;2023-07-29T08:15:47;28.10;99.90
36444;DHT22;24692;45.642;13.806;2023-07-29T08:18:13;28.70;99.90
36444;DHT22;24692;45.642;13.806;2023-07-29T08:20:39;29.70;99.90
36444;DHT22;24692;45.642;13.806;2023-07-29T08:23:04;30.70;99.90
36444;DHT22;24692;45.642;13.806;2023-07-29T08:25:30;31.60;99.90
36444;DHT22;24692;45.642;13.806;2023-07-29T08:27:56;32.50;99.90
36444;DHT22;24692;45.642;13.806;2023-07-29T08:30:22;32.90;99.90
36444;DHT22;24692;45.642;13.806;2023-07-29T08:32:48;33.20;99.90
36444;DHT22;24692;45.642;13.806;2023-07-29T08:35:13;33.70;99.90
36444;DHT22;24692;45.642;13.806;2023-07-29T08:37:39;34.20;99.90
36444;DHT22;24692;45.642;13.806;2023-07-29T08:40:05;34.70;99.90
36444;DHT22;24692;45.642;13.806;2023-07-29T08:42:32;35.10;99.90
36444;DHT22;24692;45.642;13.806;2023-07-29T08:45:06;35.60;99.90
36444;DHT22;24692;45.642;13.806;2023-07-29T08:47:32;34.40;99.90
36444;DHT22;24692;45.642;13.806;2023-07-29T08:49:59;35.00;99.90
36444;DHT22;24692;45.642;13.806;2023-07-29T08:52:26;34.70;99.90
36444;DHT22;24692;45.642;13.806;2023-07-29T08:54:53;35.10;99.90
36444;DHT22;24692;45.642;13.806;2023-07-29T08:57:20;35.40;99.90
36444;DHT22;24692;45.642;13.806;2023-07-29T08:59:46;36.00;99.90
36444;DHT22;24692;45.642;13.806;2023-07-29T09:02:11;36.10;99.90
36444;DHT22;24692;45.642;13.806;2023-07-29T09:04:37;36.20;99.90
36444;DHT22;24692;45.642;13.806;2023-07-29T09:07:03;36.50;99.90
36444;DHT22;24692;45.642;13.806;2023-07-29T09:09:30;36.60;99.90
36444;DHT22;24692;45.642;13.806;2023-07-29T09:11:56;36.90;99.90
36444;DHT22;24692;45.642;13.806;2023-07-29T09:14:23;36.60;99.90
36444;DHT22;24692;45.642;13.806;2023-07-29T09:16:49;35.80;99.90
36444;DHT22;24692;45.642;13.806;2023-07-29T09:19:14;34.20;99.90
36444;DHT22;24692;45.642;13.806;2023-07-29T09:21:41;34.00;99.90
36444;DHT22;24692;45.642;13.806;2023-07-29T09:24:07;34.30;99.90
36444;DHT22;24692;45.642;13.806;2023-07-29T09:26:33;34.80;99.90
36444;DHT22;24692;45.642;13.806;2023-07-29T09:29:00;35.10;99.90
36444;DHT22;24692;45.642;13.806;2023-07-29T09:31:27;34.30;99.90
36444;DHT22;24692;45.642;13.806;2023-07-29T09:33:57;34.50;99.90
36444;DHT22;24692;45.642;13.806;2023-07-29T09:36:24;34.60;99.90
36444;DHT22;24692;45.642;13.806;2023-07-29T09:38:55;34.50;99.90
36444;DHT22;24692;45.642;13.806;2023-07-29T09:41:28;34.80;99.90
36444;DHT22;24692;45.642;13.806;2023-07-29T09:43:57;35.30;99.90
36444;DHT22;24692;45.642;13.806;2023-07-29T09:46:24;34.80;99.90
36444;DHT22;24692;45.642;13.806;2023-07-29T09:48:54;34.10;99.90
36444;DHT22;24692;45.642;13.806;2023-07-29T09:51:21;34.30;99.90
36444;DHT22;24692;45.642;13.806;2023-07-29T09:53:48;33.80;99.90
36444;DHT22;24692;45.642;13.806;2023-07-29T09:56:15;34.50;99.90
36444;DHT22;24692;45.642;13.806;2023-07-29T09:58:45;34.70;99.90
36444;DHT22;24692;45.642;13.806;2023-07-29T10:01:11;35.10;99.90
36444;DHT22;24692;45.642;13.806;2023-07-29T10:03:37;35.50;99.90
36444;DHT22;24692;45.642;13.806;2023-07-29T10:06:04;35.30;99.90
36444;DHT22;24692;45.642;13.806;2023-07-29T10:08:31;35.40;99.90
36444;DHT22;24692;45.642;13.806;2023-07-29T10:11:10;35.50;99.90
36444;DHT22;24692;45.642;13.806;2023-07-29T10:13:37;35.50;99.90
36444;DHT22;24692;45.642;13.806;2023-07-29T10:16:03;35.60;99.90
36444;DHT22;24692;45.642;13.806;2023-07-29T10:18:31;35.80;99.90
36444;DHT22;24692;45.642;13.806;2023-07-29T10:20:59;35.60;99.90
36444;DHT22;24692;45.642;13.806;2023-07-29T10:23:26;34.50;99.90
36444;DHT22;24692;45.642;13.806;2023-07-29T10:26:03;34.20;99.90
36444;DHT22;24692;45.642;13.806;2023-07-29T10:28:31;33.30;99.90
36444;DHT22;24692;45.642;13.806;2023-07-29T10:30:58;32.80;99.90
36444;DHT22;24692;45.642;13.806;2023-07-29T10:33:24;32.50;99.90
36444;DHT22;24692;45.642;13.806;2023-07-29T10:35:50;32.60;99.90
36444;DHT22;24692;45.642;13.806;2023-07-29T10:38:16;32.00;99.90
36444;DHT22;24692;45.642;13.806;2023-07-29T10:40:52;31.80;99.90
36444;DHT22;24692;45.642;13.806;2023-07-29T10:45:52;32.60;99.90
36444;DHT22;24692;45.642;13.806;2023-07-29T10:51:36;33.20;99.90
36444;DHT22;24692;45.642;13.806;2023-07-29T10:54:03;34.00;99.90
36444;DHT22;24692;45.642;13.806;2023-07-29T10:56:35;34.90;99.90
36444;DHT22;24692;45.642;13.806;2023-07-29T11:01:50;35.20;99.90
36444;DHT22;24692;45.642;13.806;2023-07-29T11:12:50;34.30;99.90
36444;DHT22;24692;45.642;13.806;2023-07-29T11:15:24;34.30;99.90
36444;DHT22;24692;45.642;13.806;2023-07-29T11:17:52;34.30;99.90
36444;DHT22;24692;45.642;13.806;2023-07-29T11:20:30;34.40;99.90
36444;DHT22;24692;45.642;13.806;2023-07-29T11:22:58;34.50;99.90
36444;DHT22;24692;45.642;13.806;2023-07-29T11:25:25;34.60;99.90
36444;DHT22;24692;45.642;13.806;2023-07-29T11:27:53;35.10;99.90
36444;DHT22;24692;45.642;13.806;2023-07-29T11:30:19;35.30;99.90
36444;DHT22;24692;45.642;13.806;2023-07-29T11:32:46;35.00;99.90
36444;DHT22;24692;45.642;13.806;2023-07-29T11:35:17;35.20;99.90
36444;DHT22;24692;45.642;13.806;2023-07-29T11:37:45;35.10;99.90
36444;DHT22;24692;45.642;13.806;2023-07-29T11:40:14;34.80;99.90
36444;DHT22;24692;45.642;13.806;2023-07-29T11:42:40;34.30;99.90
36444;DHT22;24692;45.642;13.806;2023-07-29T11:45:07;34.40;99.90
36444;DHT22;24692;45.642;13.806;2023-07-29T11:47:33;33.60;99.90
36444;DHT22;24692;45.642;13.806;2023-07-29T11:50:03;33.70;99.90
36444;DHT22;24692;45.642;13.806;2023-07-29T11:52:29;34.40;99.90
36444;DHT22;24692;45.642;13.806;2023-07-29T11:54:57;35.40;99.90
36444;DHT22;24692;45.642;13.806;2023-07-29T11:57:23;35.80;99.90
36444;DHT22;24692;45.642;13.806;2023-07-29T11:59:49;34.70;99.90
36444;DHT22;24692;45.642;13.806;2023-07-29T12:02:16;34.70;99.90
36444;DHT22;24692;45.642;13.806;2023-07-29T12:04:44;34.80;99.90
36444;DHT22;24692;45.642;13.806;2023-07-29T12:07:10;34.70;99.90
36444;DHT22;24692;45.642;13.806;2023-07-29T12:09:38;35.20;99.90
36444;DHT22;24692;45.642;13.806;2023-07-29T12:12:05;34.90;99.90
36444;DHT22;24692;45.642;13.806;2023-07-29T12:14:32;35.30;99.90
36444;DHT22;24692;45.642;13.806;2023-07-29T12:17:00;34.50;99.90
36444;DHT22;24692;45.642;13.806;2023-07-29T12:19:32;33.70;99.90
36444;DHT22;24692;45.642;13.806;2023-07-29T12:21:58;33.20;99.90
36444;DHT22;24692;45.642;13.806;2023-07-29T12:24:24;33.60;99.90
36444;DHT22;24692;45.642;13.806;2023-07-29T12:26:51;34.10;99.90
36444;DHT22;24692;45.642;13.806;2023-07-29T12:29:19;33.40;99.90
36444;DHT22;24692;45.642;13.806;2023-07-29T12:31:46;33.80;99.90
36444;DHT22;24692;45.642;13.806;2023-07-29T12:34:19;33.90;99.90
36444;DHT22;24692;45.642;13.806;2023-07-29T12:36:47;33.80;99.90
36444;DHT22;24692;45.642;13.806;2023-07-29T12:39:27;34.30;99.90
36444;DHT22;24692;45.642;13.806;2023-07-29T12:41:55;33.80;99.90
36444;DHT22;24692;45.642;13.806;2023-07-29T12:44:29;34.60;99.90
36444;DHT22;24692;45.642;13.806;2023-07-29T12:46:55;34.40;99.90
36444;DHT22;24692;45.642;13.806;2023-07-29T12:49:20;34.10;99.90
36444;DHT22;24692;45.642;13.806;2023-07-29T12:51:46;33.90;99.90
36444;DHT22;24692;45.642;13.806;2023-07-29T12:54:12;33.70;99.90
36444;DHT22;24692;45.642;13.806;2023-07-29T12:56:37;34.30;99.90
36444;DHT22;24692;45.642;13.806;2023-07-29T12:59:04;34.90;99.90
36444;DHT22;24692;45.642;13.806;2023-07-29T13:01:30;35.00;99.90
36444;DHT22;24692;45.642;13.806;2023-07-29T13:03:56;35.80;99.90
36444;DHT22;24692;45.642;13.806;2023-07-29T13:06:21;35.50;99.90
36444;DHT22;24692;45.642;13.806;2023-07-29T13:08:48;34.90;99.90
36444;DHT22;24692;45.642;13.806;2023-07-29T13:11:14;35.30;99.90
36444;DHT22;24692;45.642;13.806;2023-07-29T13:13:40;34.90;99.90
36444;DHT22;24692;45.642;13.806;2023-07-29T13:16:06;34.60;99.90
36444;DHT22;24692;45.642;13.806;2023-07-29T13:18:32;34.40;99.90
36444;DHT22;24692;45.642;13.806;2023-07-29T13:20:58;34.40;99.90
36444;DHT22;24692;45.642;13.806;2023-07-29T13:23:25;34.30;99.90
36444;DHT22;24692;45.642;13.806;2023-07-29T13:25:51;33.70;99.90
36444;DHT22;24692;45.642;13.806;2023-07-29T13:28:17;34.00;99.90
36444;DHT22;24692;45.642;13.806;2023-07-29T13:30:42;34.80;99.90
36444;DHT22;24692;45.642;13.806;2023-07-29T13:33:08;34.60;99.90
36444;DHT22;24692;45.642;13.806;2023-07-29T13:35:34;34.10;99.90
36444;DHT22;24692;45.642;13.806;2023-07-29T13:38:00;33.70;99.90
36444;DHT22;24692;45.642;13.806;2023-07-29T13:40:26;33.80;99.90
36444;DHT22;24692;45.642;13.806;2023-07-29T13:42:53;34.10;99.90
36444;DHT22;24692;45.642;13.806;2023-07-29T13:45:19;34.00;99.90
36444;DHT22;24692;45.642;13.806;2023-07-29T13:47:44;33.40;99.90
36444;DHT22;24692;45.642;13.806;2023-07-29T13:50:10;34.00;99.90
36444;DHT22;24692;45.642;13.806;2023-07-29T13:52:37;34.40;99.90
36444;DHT22;24692;45.642;13.806;2023-07-29T13:55:04;34.20;99.90
36444;DHT22;24692;45.642;13.806;2023-07-29T13:57:30;33.70;99.90
36444;DHT22;24692;45.642;13.806;2023-07-29T13:59:55;33.00;99.90
36444;DHT22;24692;45.642;13.806;2023-07-29T14:02:21;32.90;99.90
36444;DHT22;24692;45.642;13.806;2023-07-29T14:04:46;33.40;99.90
36444;DHT22;24692;45.642;13.806;2023-07-29T14:07:12;33.60;99.90
36444;DHT22;24692;45.642;13.806;2023-07-29T14:09:38;33.10;99.90
36444;DHT22;24692;45.642;13.806;2023-07-29T14:12:04;33.80;99.90
36444;DHT22;24692;45.642;13.806;2023-07-29T14:14:30;34.30;99.90
36444;DHT22;24692;45.642;13.806;2023-07-29T14:16:56;34.50;99.90
36444;DHT22;24692;45.642;13.806;2023-07-29T14:19:22;34.50;99.90
36444;DHT22;24692;45.642;13.806;2023-07-29T14:21:48;34.10;99.90
36444;DHT22;24692;45.642;13.806;2023-07-29T14:24:14;33.70;99.90
36444;DHT22;24692;45.642;13.806;2023-07-29T14:26:41;33.10;99.90
36444;DHT22;24692;45.642;13.806;2023-07-29T14:29:07;33.00;99.90
36444;DHT22;24692;45.642;13.806;2023-07-29T14:31:32;33.10;99.90
36444;DHT22;24692;45.642;13.806;2023-07-29T14:33:58;33.00;99.90
36444;DHT22;24692;45.642;13.806;2023-07-29T14:36:25;32.70;99.90
36444;DHT22;24692;45.642;13.806;2023-07-29T14:38:51;33.00;99.90
36444;DHT22;24692;45.642;13.806;2023-07-29T14:41:16;32.90;99.90
36444;DHT22;24692;45.642;13.806;2023-07-29T14:43:42;32.60;99.90
36444;DHT22;24692;45.642;13.806;2023-07-29T14:46:08;32.70;99.90
36444;DHT22;24692;45.642;13.806;2023-07-29T14:48:33;32.60;99.90
36444;DHT22;24692;45.642;13.806;2023-07-29T14:50:59;32.80;99.90
36444;DHT22;24692;45.642;13.806;2023-07-29T14:53:25;33.40;99.90
36444;DHT22;24692;45.642;13.806;2023-07-29T14:55:51;33.50;99.90
36444;DHT22;24692;45.642;13.806;2023-07-29T14:58:16;34.00;99.90
36444;DHT22;24692;45.642;13.806;2023-07-29T15:00:42;33.80;99.90
36444;DHT22;24692;45.642;13.806;2023-07-29T15:03:08;34.20;99.90
36444;DHT22;24692;45.642;13.806;2023-07-29T15:05:33;33.10;99.90
36444;DHT22;24692;45.642;13.806;2023-07-29T15:07:59;32.60;99.90
36444;DHT22;24692;45.642;13.806;2023-07-29T15:10:25;32.60;99.90
36444;DHT22;24692;45.642;13.806;2023-07-29T15:12:51;33.00;99.90
36444;DHT22;24692;45.642;13.806;2023-07-29T15:15:16;33.20;99.90
36444;DHT22;24692;45.642;13.806;2023-07-29T15:17:42;33.50;99.90
36444;DHT22;24692;45.642;13.806;2023-07-29T15:20:08;33.30;99.90
36444;DHT22;24692;45.642;13.806;2023-07-29T15:22:34;32.80;99.90
36444;DHT22;24692;45.642;13.806;2023-07-29T15:25:00;32.60;99.90
36444;DHT22;24692;45.642;13.806;2023-07-29T15:27:27;32.60;99.90
36444;DHT22;24692;45.642;13.806;2023-07-29T15:29:52;32.60;99.90
36444;DHT22;24692;45.642;13.806;2023-07-29T15:32:18;32.30;99.90
36444;DHT22;24692;45.642;13.806;2023-07-29T15:34:44;31.70;99.90